Time;durP1;ratioP1;P1;durP2;ratioP2;P2;SDS_P1;SDS_P2;PMS_P1;PMS_P2;Temp;Humidity;BMP_temperature;BMP_pressure;BME280_temperature;BME280_humidity;BME280_pressure;Samples;Min_cycle;Max_cycle;Signal;HPM_P1;HPM_P2
2021/08/08 00:00:07;;;;;;;5.13;4.63;;;18.00;1.00;;;;;;5114231;27;20478;-69
2021/08/08 00:02:37;;;;;;;5.33;4.00;;;18.00;1.00;;;;;;5121396;27;20543;-69
2021/08/08 00:05:04;;;;;;;3.97;3.57;;;18.10;1.00;;;;;;5119086;27;20453;-70
2021/08/08 00:07:31;;;;;;;4.40;4.00;;;18.10;1.00;;;;;;5114629;27;20482;-68
2021/08/08 00:09:58;;;;;;;4.20;3.80;;;18.10;1.00;;;;;;5113651;27;20468;-70
2021/08/08 00:12:26;;;;;;;3.87;3.57;;;18.10;1.00;;;;;;5099479;27;21580;-70
2021/08/08 00:14:53;;;;;;;4.10;3.70;;;18.10;1.00;;;;;;5114933;27;20410;-70
2021/08/08 00:17:20;;;;;;;4.10;3.70;;;18.20;1.00;;;;;;5116569;27;20440;-70
2021/08/08 00:19:47;;;;;;;4.20;3.80;;;18.20;1.00;;;;;;5115266;27;21001;-71
2021/08/08 00:22:13;;;;;;;4.40;4.00;;;18.20;1.00;;;;;;5111602;27;21258;-69
2021/08/08 00:24:40;;;;;;;5.07;4.10;;;18.20;1.00;;;;;;5112881;27;20519;-71
2021/08/08 00:27:07;;;;;;;4.13;3.73;;;18.10;1.00;;;;;;5114644;27;20984;-71
2021/08/08 00:29:36;;;;;;;4.27;3.90;;;18.10;1.00;;;;;;5114280;27;20450;-70
2021/08/08 00:32:03;;;;;;;4.00;3.70;;;18.10;1.00;;;;;;5111255;27;20488;-72
2021/08/08 00:34:30;;;;;;;3.90;3.60;;;18.10;1.00;;;;;;5108504;27;20445;-70
2021/08/08 00:36:57;;;;;;;4.60;3.83;;;18.10;1.00;;;;;;5112808;27;21071;-71
2021/08/08 00:39:25;;;;;;;4.00;3.60;;;18.10;1.00;;;;;;5103612;27;21012;-70
2021/08/08 00:41:51;;;;;;;4.43;3.73;;;18.00;1.00;;;;;;5118893;27;20449;-70
2021/08/08 00:44:18;;;;;;;4.03;3.60;;;18.00;1.00;;;;;;5111716;27;20480;-72
2021/08/08 00:46:46;;;;;;;6.97;4.30;;;18.00;1.00;;;;;;5111265;27;20437;-70
2021/08/08 00:49:13;;;;;;;4.70;4.00;;;18.00;1.00;;;;;;5109431;27;20451;-70
2021/08/08 00:51:40;;;;;;;3.73;3.43;;;18.00;1.00;;;;;;5110801;27;20462;-72
2021/08/08 00:54:08;;;;;;;4.20;3.80;;;18.00;1.00;;;;;;5111418;27;20441;-70
2021/08/08 00:56:37;;;;;;;4.17;3.77;;;17.90;1.00;;;;;;5115712;27;20436;-70
2021/08/08 00:59:04;;;;;;;4.17;3.60;;;17.90;1.00;;;;;;5114917;27;21037;-71
2021/08/08 01:01:36;;;;;;;4.57;3.97;;;17.90;1.00;;;;;;5110996;27;20448;-71
2021/08/08 01:04:05;;;;;;;3.83;3.47;;;17.80;1.00;;;;;;5112494;27;20468;-71
2021/08/08 01:06:40;;;;;;;5.50;4.10;;;17.80;1.00;;;;;;5112395;27;21468;-69
2021/08/08 01:09:10;;;;;;;3.90;3.50;;;17.70;1.00;;;;;;5115571;27;21258;-70
2021/08/08 01:11:37;;;;;;;5.00;4.50;;;17.70;1.00;;;;;;5118342;27;20459;-69
2021/08/08 01:14:05;;;;;;;4.53;4.13;;;17.60;1.00;;;;;;5114619;27;20448;-70
2021/08/08 01:16:33;;;;;;;4.53;4.10;;;17.60;1.00;;;;;;5123999;27;20459;-70
2021/08/08 01:19:01;;;;;;;4.07;3.67;;;17.60;1.00;;;;;;5124810;27;20474;-71
2021/08/08 01:21:33;;;;;;;4.00;3.70;;;17.60;1.00;;;;;;5103905;27;20468;-70
2021/08/08 01:24:02;;;;;;;4.00;3.47;;;17.50;1.00;;;;;;5117718;27;21028;-70
2021/08/08 01:26:31;;;;;;;4.70;3.20;;;17.50;1.00;;;;;;5119742;27;20456;-68
2021/08/08 01:28:58;;;;;;;3.80;3.40;;;17.50;1.00;;;;;;5126561;27;20458;-68
2021/08/08 01:31:25;;;;;;;4.50;3.50;;;17.40;1.00;;;;;;5122930;27;20970;-69
2021/08/08 01:33:52;;;;;;;5.23;4.10;;;17.40;1.00;;;;;;5124804;27;20450;-69
2021/08/08 01:36:19;;;;;;;4.30;3.90;;;17.40;1.00;;;;;;5129743;27;20420;-68
2021/08/08 01:38:52;;;;;;;3.77;3.47;;;17.40;1.00;;;;;;5149148;27;20436;-68
2021/08/08 01:41:23;;;;;;;5.30;4.10;;;17.40;1.00;;;;;;5139992;27;21359;-70
2021/08/08 01:43:52;;;;;;;4.63;3.80;;;17.40;1.00;;;;;;5148636;27;21027;-69
2021/08/08 01:46:21;;;;;;;5.10;3.87;;;17.40;1.00;;;;;;5146580;27;20416;-69
2021/08/08 01:48:51;;;;;;;4.27;3.40;;;17.40;1.00;;;;;;5150700;27;20431;-67
2021/08/08 01:51:18;;;;;;;4.53;3.60;;;17.40;1.00;;;;;;5147824;27;20451;-68
2021/08/08 01:53:46;;;;;;;4.00;3.30;;;17.40;1.00;;;;;;5146537;27;20431;-68
2021/08/08 01:56:13;;;;;;;4.30;3.33;;;17.40;1.00;;;;;;5149701;27;20463;-68
2021/08/08 01:58:41;;;;;;;5.40;4.10;;;17.50;1.00;;;;;;5147841;27;20412;-68
2021/08/08 02:01:07;;;;;;;5.30;3.80;;;17.50;1.00;;;;;;5150523;27;20779;-68
2021/08/08 02:03:35;;;;;;;4.13;3.73;;;17.50;1.00;;;;;;5147997;27;20398;-69
2021/08/08 02:06:04;;;;;;;4.93;3.80;;;17.50;1.00;;;;;;5143410;27;20480;-69
2021/08/08 02:08:31;;;;;;;4.53;3.67;;;17.50;1.00;;;;;;5142366;27;20417;-70
2021/08/08 02:10:58;;;;;;;5.00;3.17;;;17.50;1.00;;;;;;5140119;27;20417;-72
2021/08/08 02:13:25;;;;;;;4.13;3.40;;;17.60;1.00;;;;;;5141206;27;20431;-71
2021/08/08 02:15:53;;;;;;;3.93;3.63;;;17.50;1.00;;;;;;5130012;27;20443;-70
2021/08/08 02:18:20;;;;;;;4.17;3.73;;;17.40;1.00;;;;;;5125663;27;20459;-70
2021/08/08 02:20:48;;;;;;;4.03;3.57;;;17.40;1.00;;;;;;5116956;27;20486;-70
2021/08/08 02:23:15;;;;;;;5.40;3.73;;;17.40;1.00;;;;;;5115145;27;20538;-69
2021/08/08 02:25:42;;;;;;;5.07;3.77;;;17.30;1.00;;;;;;5115279;27;21025;-71
2021/08/08 02:28:08;;;;;;;4.70;3.40;;;17.30;1.00;;;;;;5124576;27;20566;-71
2021/08/08 02:30:35;;;;;;;6.23;3.30;;;17.30;1.00;;;;;;5123848;27;20614;-71
2021/08/08 02:33:04;;;;;;;4.43;3.80;;;17.30;1.00;;;;;;5124572;27;20463;-71
2021/08/08 02:35:30;;;;;;;4.40;3.10;;;17.30;1.00;;;;;;5124222;27;20454;-71
2021/08/08 02:37:57;;;;;;;4.20;3.53;;;17.20;1.00;;;;;;5099680;27;20539;-69
2021/08/08 02:40:24;;;;;;;4.67;3.70;;;17.20;1.00;;;;;;5124864;27;20507;-70
2021/08/08 02:42:50;;;;;;;4.60;3.30;;;17.20;1.00;;;;;;5128618;27;20426;-70
2021/08/08 02:45:17;;;;;;;4.53;4.10;;;17.20;1.00;;;;;;5125316;27;20439;-71
2021/08/08 02:47:47;;;;;;;3.40;3.10;;;17.20;1.00;;;;;;5132220;27;20526;-71
2021/08/08 02:50:15;;;;;;;5.03;4.53;;;17.30;1.00;;;;;;5119861;27;20456;-71
2021/08/08 02:52:42;;;;;;;5.90;3.70;;;17.30;1.00;;;;;;5126196;27;20440;-69
2021/08/08 02:55:10;;;;;;;4.70;3.80;;;17.30;1.00;;;;;;5126813;27;20455;-71
2021/08/08 02:57:37;;;;;;;4.70;3.97;;;17.30;1.00;;;;;;5120584;27;20435;-70
2021/08/08 03:00:05;;;;;;;5.17;3.70;;;17.30;1.00;;;;;;5125686;27;20469;-70
2021/08/08 03:02:31;;;;;;;4.43;3.87;;;17.30;1.00;;;;;;5118890;27;20448;-69
2021/08/08 03:04:59;;;;;;;5.10;3.50;;;17.40;1.00;;;;;;5123105;27;20887;-70
2021/08/08 03:07:27;;;;;;;4.27;3.63;;;17.40;1.00;;;;;;5126819;27;20427;-70
2021/08/08 03:09:54;;;;;;;6.00;3.40;;;17.50;1.00;;;;;;5122668;27;20462;-69
2021/08/08 03:12:20;;;;;;;3.60;3.30;;;17.50;1.00;;;;;;5124703;27;20440;-70
2021/08/08 03:14:47;;;;;;;6.37;3.53;;;17.50;1.00;;;;;;5119611;27;20448;-70
2021/08/08 03:17:14;;;;;;;3.80;3.50;;;17.50;1.00;;;;;;5126504;27;20451;-69
2021/08/08 03:19:40;;;;;;;4.23;3.83;;;17.50;1.00;;;;;;5128522;27;20471;-70
2021/08/08 03:22:07;;;;;;;4.33;3.47;;;17.60;1.00;;;;;;5122197;27;20452;-70
2021/08/08 03:24:36;;;;;;;4.23;3.80;;;17.60;1.00;;;;;;5121562;27;20459;-69
2021/08/08 03:27:03;;;;;;;4.07;3.67;;;17.50;1.00;;;;;;5125717;27;21048;-70
2021/08/08 03:29:30;;;;;;;5.17;3.30;;;17.50;1.00;;;;;;5124952;27;20448;-70
2021/08/08 03:31:56;;;;;;;3.87;3.57;;;17.50;1.00;;;;;;5124568;27;20461;-70
2021/08/08 03:34:23;;;;;;;4.70;3.40;;;17.50;1.00;;;;;;5127712;27;20461;-70
2021/08/08 03:36:50;;;;;;;6.23;3.67;;;17.60;1.00;;;;;;5118387;27;20452;-70
2021/08/08 03:39:20;;;;;;;4.93;3.47;;;17.60;1.00;;;;;;5124655;27;20452;-70
2021/08/08 03:41:48;;;;;;;4.77;3.50;;;17.60;1.00;;;;;;5118406;27;20467;-69
2021/08/08 03:44:14;;;;;;;3.70;3.30;;;17.60;1.00;;;;;;5126214;27;21497;-70
2021/08/08 03:46:41;;;;;;;4.97;3.40;;;17.60;1.00;;;;;;5124826;27;20451;-70
2021/08/08 03:49:09;;;;;;;3.73;3.43;;;17.60;1.00;;;;;;5118344;27;20961;-71
2021/08/08 03:51:36;;;;;;;3.73;3.43;;;17.70;1.00;;;;;;5127524;27;20448;-70
2021/08/08 03:54:03;;;;;;;5.80;4.20;;;17.70;1.00;;;;;;5122465;27;21271;-70
2021/08/08 03:56:30;;;;;;;3.80;3.50;;;17.70;1.00;;;;;;5123180;27;20457;-69
2021/08/08 03:58:58;;;;;;;4.83;4.00;;;17.70;1.00;;;;;;5122658;27;20467;-71
2021/08/08 04:01:25;;;;;;;5.60;3.70;;;17.70;1.00;;;;;;5121746;27;20443;-71
2021/08/08 04:03:51;;;;;;;4.07;3.30;;;17.60;1.00;;;;;;5123725;27;20448;-70
2021/08/08 04:06:18;;;;;;;5.63;3.23;;;17.60;1.00;;;;;;5120585;27;20979;-70
2021/08/08 04:08:44;;;;;;;3.97;3.60;;;17.60;1.00;;;;;;5103384;27;20483;-69
2021/08/08 04:11:12;;;;;;;4.23;3.17;;;17.60;1.00;;;;;;5123925;27;20958;-70
2021/08/08 04:13:39;;;;;;;4.70;3.67;;;17.70;1.00;;;;;;5122900;27;20458;-69
2021/08/08 04:16:07;;;;;;;4.70;3.70;;;17.60;1.00;;;;;;5129137;27;20456;-71
2021/08/08 04:18:34;;;;;;;4.00;3.60;;;17.60;1.00;;;;;;5123835;27;20550;-70
2021/08/08 04:21:01;;;;;;;3.77;3.40;;;17.60;1.00;;;;;;5125560;27;20452;-69
2021/08/08 04:23:28;;;;;;;3.87;3.33;;;17.60;1.00;;;;;;5122988;27;20482;-69
2021/08/08 04:25:54;;;;;;;3.93;3.47;;;17.60;1.00;;;;;;5124826;27;20452;-69
2021/08/08 04:28:21;;;;;;;3.60;3.23;;;17.60;1.00;;;;;;5121222;27;20477;-68
2021/08/08 04:30:48;;;;;;;3.60;3.30;;;17.60;1.00;;;;;;5103923;27;20453;-70
2021/08/08 04:33:16;;;;;;;4.37;3.30;;;17.60;1.00;;;;;;5122144;27;20460;-70
2021/08/08 04:35:42;;;;;;;4.20;3.27;;;17.60;1.00;;;;;;5124680;27;20452;-70
2021/08/08 04:38:09;;;;;;;3.53;3.23;;;17.50;1.00;;;;;;5128415;27;20428;-69
2021/08/08 04:40:36;;;;;;;3.80;3.10;;;17.50;1.00;;;;;;5121537;27;20464;-69
2021/08/08 04:43:05;;;;;;;3.60;3.30;;;17.50;1.00;;;;;;5119496;27;20552;-71
2021/08/08 04:45:32;;;;;;;3.90;3.17;;;17.50;1.00;;;;;;5124053;27;20913;-71
2021/08/08 04:47:58;;;;;;;3.67;3.37;;;17.50;1.00;;;;;;5123017;27;20468;-70
2021/08/08 04:50:26;;;;;;;3.70;3.27;;;17.60;1.00;;;;;;5124052;27;20531;-70
2021/08/08 04:52:53;;;;;;;3.40;3.10;;;17.60;1.00;;;;;;5121400;27;20419;-69
2021/08/08 04:55:20;;;;;;;4.20;3.17;;;17.70;1.00;;;;;;5120763;27;20450;-69
2021/08/08 04:57:46;;;;;;;4.23;2.80;;;17.70;1.00;;;;;;5122223;27;20459;-70
2021/08/08 05:00:14;;;;;;;6.43;3.37;;;17.60;1.00;;;;;;5120228;27;20443;-69
2021/08/08 05:02:44;;;;;;;4.20;3.23;;;17.60;1.00;;;;;;5128712;27;20443;-70
2021/08/08 05:05:12;;;;;;;5.47;3.00;;;17.60;1.00;;;;;;5132970;27;20447;-69
2021/08/08 05:07:40;;;;;;;3.73;3.10;;;17.60;1.00;;;;;;5134021;27;20475;-69
2021/08/08 05:10:08;;;;;;;3.93;3.00;;;17.60;1.00;;;;;;5128589;27;20539;-69
2021/08/08 05:12:35;;;;;;;3.47;2.80;;;17.60;1.00;;;;;;5137319;27;20420;-71
2021/08/08 05:15:02;;;;;;;4.93;2.73;;;17.50;1.00;;;;;;5133031;27;20527;-69
2021/08/08 05:17:28;;;;;;;3.70;2.50;;;17.50;1.00;;;;;;5135008;27;20420;-70
2021/08/08 05:19:55;;;;;;;4.00;2.53;;;17.50;1.00;;;;;;5130136;27;20455;-71
2021/08/08 05:22:21;;;;;;;3.20;2.90;;;17.60;1.00;;;;;;5133891;27;20445;-71
2021/08/08 05:24:49;;;;;;;3.97;2.87;;;17.60;1.00;;;;;;5123652;27;20457;-71
2021/08/08 05:27:16;;;;;;;3.27;2.50;;;17.60;1.00;;;;;;5117694;27;20456;-71
2021/08/08 05:29:43;;;;;;;2.53;2.20;;;17.60;1.00;;;;;;5128801;27;20456;-70
2021/08/08 05:32:10;;;;;;;2.23;2.03;;;17.60;1.00;;;;;;5118254;27;20436;-71
2021/08/08 05:34:36;;;;;;;3.73;1.90;;;17.70;1.00;;;;;;5121793;27;20440;-71
2021/08/08 05:37:03;;;;;;;2.43;1.83;;;17.70;1.00;;;;;;5115648;27;20456;-70
2021/08/08 05:39:30;;;;;;;3.63;2.10;;;17.70;1.00;;;;;;5120560;27;20456;-71
2021/08/08 05:41:58;;;;;;;2.57;2.27;;;17.70;1.00;;;;;;5123361;27;21762;-70
2021/08/08 05:44:24;;;;;;;3.80;2.23;;;17.70;1.00;;;;;;5122193;27;20436;-68
2021/08/08 05:46:51;;;;;;;2.73;2.43;;;17.70;1.00;;;;;;5126861;27;20458;-69
2021/08/08 05:49:18;;;;;;;2.50;2.30;;;17.70;1.00;;;;;;5120531;27;20485;-69
2021/08/08 05:51:45;;;;;;;2.17;1.93;;;17.70;1.00;;;;;;5122803;27;20493;-70
2021/08/08 05:54:11;;;;;;;2.83;2.27;;;17.80;1.00;;;;;;5114141;27;20453;-68
2021/08/08 05:56:39;;;;;;;2.50;1.87;;;17.80;1.00;;;;;;5123611;27;20467;-69
2021/08/08 05:59:07;;;;;;;3.50;2.10;;;17.70;1.00;;;;;;5124830;27;21213;-70
2021/08/08 06:01:34;;;;;;;3.10;2.17;;;17.80;1.00;;;;;;5120301;27;20424;-68
2021/08/08 06:04:00;;;;;;;2.97;2.60;;;17.80;1.00;;;;;;5122097;27;20441;-69
2021/08/08 06:06:28;;;;;;;3.03;2.03;;;17.90;1.00;;;;;;5121386;27;20997;-71
2021/08/08 06:08:54;;;;;;;2.50;2.20;;;18.00;1.00;;;;;;5119630;27;20452;-72
2021/08/08 06:11:21;;;;;;;4.00;1.73;;;18.10;1.00;;;;;;5122324;27;20456;-70
2021/08/08 06:13:48;;;;;;;3.20;2.10;;;18.20;1.00;;;;;;5122725;27;20535;-68
2021/08/08 06:16:16;;;;;;;2.87;1.90;;;18.30;1.00;;;;;;5103588;27;20471;-71
2021/08/08 06:18:42;;;;;;;6.50;2.17;;;18.30;1.00;;;;;;5119367;27;20486;-72
2021/08/08 06:21:09;;;;;;;2.37;2.17;;;18.40;1.00;;;;;;5129343;27;20455;-71
2021/08/08 06:23:36;;;;;;;3.33;2.20;;;18.40;1.00;;;;;;5126579;27;20409;-72
2021/08/08 06:26:02;;;;;;;2.70;2.07;;;18.50;1.00;;;;;;5126881;27;20967;-72
2021/08/08 06:28:29;;;;;;;3.50;2.10;;;18.50;1.00;;;;;;5118863;27;20444;-71
2021/08/08 06:30:56;;;;;;;2.57;2.00;;;18.50;1.00;;;;;;5118233;27;20500;-71
2021/08/08 06:33:24;;;;;;;2.17;1.87;;;18.60;1.00;;;;;;5125698;27;20440;-70
2021/08/08 06:35:52;;;;;;;3.13;2.10;;;18.70;1.00;;;;;;5119982;27;21050;-69
2021/08/08 06:38:19;;;;;;;4.37;2.30;;;18.80;1.00;;;;;;5124091;27;20919;-69
2021/08/08 06:40:46;;;;;;;2.57;1.80;;;18.80;1.00;;;;;;5115992;27;20548;-70
2021/08/08 06:43:13;;;;;;;2.50;2.00;;;18.80;1.00;;;;;;5116288;27;20475;-70
2021/08/08 06:45:39;;;;;;;2.80;2.20;;;18.90;1.00;;;;;;5121288;27;20448;-68
2021/08/08 06:48:06;;;;;;;3.00;2.30;;;18.90;1.00;;;;;;5115899;27;20445;-69
2021/08/08 06:50:35;;;;;;;2.00;1.63;;;19.00;1.00;;;;;;5120164;27;20547;-69
2021/08/08 06:53:02;;;;;;;3.00;2.30;;;19.10;1.00;;;;;;5114662;27;20447;-69
2021/08/08 06:55:28;;;;;;;2.30;1.97;;;19.10;1.00;;;;;;5116412;27;20517;-71
2021/08/08 06:57:55;;;;;;;3.10;2.20;;;19.20;1.00;;;;;;5116245;27;20453;-70
2021/08/08 07:00:22;;;;;;;3.50;1.73;;;19.20;1.00;;;;;;5117889;27;21315;-70
2021/08/08 07:02:50;;;;;;;3.87;1.60;;;19.30;1.00;;;;;;5119449;27;20456;-71
2021/08/08 07:05:17;;;;;;;2.10;1.57;;;19.40;1.00;;;;;;5120813;27;21249;-71
2021/08/08 07:07:45;;;;;;;2.80;1.80;;;19.40;1.00;;;;;;5117441;27;20450;-71
2021/08/08 07:10:12;;;;;;;2.90;1.90;;;19.50;1.00;;;;;;5116211;27;20437;-70
2021/08/08 07:12:39;;;;;;;3.33;1.70;;;19.60;1.00;;;;;;5117163;27;21244;-69
2021/08/08 07:15:07;;;;;;;2.87;1.60;;;19.50;1.00;;;;;;5111422;27;20441;-71
2021/08/08 07:17:34;;;;;;;2.67;1.57;;;19.50;1.00;;;;;;5117522;27;20559;-71
2021/08/08 07:20:00;;;;;;;2.73;1.83;;;19.50;1.00;;;;;;5120110;27;20461;-72
2021/08/08 07:22:27;;;;;;;2.63;1.67;;;19.50;1.00;;;;;;5118181;27;20556;-69
2021/08/08 07:24:55;;;;;;;2.23;1.63;;;19.60;1.00;;;;;;5123058;27;20481;-70
2021/08/08 07:27:22;;;;;;;2.57;1.60;;;19.70;1.00;;;;;;5121082;27;21221;-70
2021/08/08 07:29:48;;;;;;;5.23;1.80;;;19.80;1.00;;;;;;5128339;27;20424;-69
2021/08/08 07:32:15;;;;;;;2.27;1.50;;;19.80;1.00;;;;;;5117325;27;20441;-70
2021/08/08 07:34:42;;;;;;;1.80;1.20;;;19.80;1.00;;;;;;5127211;27;20457;-71
2021/08/08 07:37:08;;;;;;;3.00;1.70;;;19.90;1.00;;;;;;5121197;27;20469;-69
2021/08/08 07:39:36;;;;;;;3.10;1.73;;;20.00;1.00;;;;;;5122066;27;20446;-70
2021/08/08 07:42:04;;;;;;;3.33;1.40;;;20.20;1.00;;;;;;5121279;27;20457;-70
2021/08/08 07:44:31;;;;;;;2.00;1.60;;;20.30;1.00;;;;;;5119450;27;20487;-69
2021/08/08 07:46:58;;;;;;;1.90;1.50;;;20.40;1.00;;;;;;5125448;27;20465;-70
2021/08/08 07:49:24;;;;;;;3.47;1.70;;;20.60;1.00;;;;;;5123604;27;20446;-70
2021/08/08 07:51:51;;;;;;;2.57;1.40;;;20.80;1.00;;;;;;5116458;27;20495;-68
2021/08/08 07:54:19;;;;;;;2.93;1.73;;;20.80;1.00;;;;;;5110479;27;20950;-70
2021/08/08 07:56:46;;;;;;;1.93;1.40;;;20.90;1.00;;;;;;5114040;27;20439;-71
2021/08/08 07:59:14;;;;;;;1.70;1.30;;;21.10;1.00;;;;;;5114634;27;20457;-70
2021/08/08 08:01:41;;;;;;;3.50;1.30;;;21.20;1.00;;;;;;5110464;27;20450;-71
2021/08/08 08:04:08;;;;;;;3.40;1.43;;;21.20;1.00;;;;;;5114923;27;20480;-72
2021/08/08 08:06:35;;;;;;;3.73;1.50;;;21.30;1.00;;;;;;5117096;27;20526;-70
2021/08/08 08:09:01;;;;;;;2.50;1.17;;;21.30;1.00;;;;;;5108964;27;20443;-69
2021/08/08 08:11:28;;;;;;;2.83;1.20;;;21.40;1.00;;;;;;5112253;27;20490;-70
2021/08/08 08:13:55;;;;;;;2.10;1.30;;;21.60;1.00;;;;;;5115740;27;20573;-71
2021/08/08 08:16:22;;;;;;;1.90;1.50;;;21.80;1.00;;;;;;5112385;27;20445;-70
2021/08/08 08:18:49;;;;;;;2.70;1.50;;;22.00;1.00;;;;;;5112925;27;20459;-71
2021/08/08 08:21:16;;;;;;;2.37;1.37;;;22.20;1.00;;;;;;5111629;27;20446;-72
2021/08/08 08:23:43;;;;;;;3.00;1.50;;;22.30;1.00;;;;;;5111986;27;20503;-70
2021/08/08 08:26:09;;;;;;;1.60;1.17;;;22.50;1.00;;;;;;5110287;27;20452;-71
2021/08/08 08:28:36;;;;;;;2.07;1.30;;;22.70;1.00;;;;;;5112562;27;20451;-75
2021/08/08 08:31:03;;;;;;;1.40;0.80;;;23.00;1.00;;;;;;5113034;27;21064;-74
2021/08/08 08:33:31;;;;;;;3.70;1.53;;;23.20;1.00;;;;;;5112108;27;20463;-74
2021/08/08 08:35:58;;;;;;;3.10;1.33;;;23.30;1.00;;;;;;5112513;27;20449;-74
2021/08/08 08:38:25;;;;;;;3.10;1.10;;;23.30;1.00;;;;;;5115357;27;21371;-74
2021/08/08 08:40:52;;;;;;;1.57;1.20;;;23.20;1.00;;;;;;5113803;27;20468;-74
2021/08/08 08:43:23;;;;;;;7.20;6.57;;;23.20;1.00;;;;;;5114443;27;20481;-74
2021/08/08 08:45:51;;;;;;;2.13;1.30;;;23.20;1.00;;;;;;5111278;27;20971;-74
2021/08/08 08:48:19;;;;;;;2.27;1.23;;;23.10;1.00;;;;;;5113527;27;20478;-74
2021/08/08 08:50:52;;;;;;;2.37;1.30;;;23.10;1.00;;;;;;5114051;27;20639;-74
2021/08/08 08:53:19;;;;;;;2.03;1.27;;;22.90;1.00;;;;;;5115657;27;20510;-75
2021/08/08 08:55:45;;;;;;;2.50;1.13;;;22.80;1.00;;;;;;5122440;27;20462;-75
2021/08/08 08:58:13;;;;;;;2.13;1.30;;;22.80;1.00;;;;;;5119580;27;20470;-74
2021/08/08 09:00:41;;;;;;;1.73;1.23;;;22.70;1.00;;;;;;5123520;27;20600;-75
2021/08/08 09:03:07;;;;;;;1.40;1.13;;;22.80;1.00;;;;;;5124265;27;20472;-74
2021/08/08 09:05:34;;;;;;;2.10;1.23;;;23.00;1.00;;;;;;5124958;27;20447;-74
2021/08/08 09:08:02;;;;;;;1.77;1.23;;;22.90;1.00;;;;;;5121385;27;20407;-73
2021/08/08 09:10:29;;;;;;;3.53;1.57;;;22.80;1.00;;;;;;5116871;27;20441;-74
2021/08/08 09:12:57;;;;;;;2.40;1.50;;;22.80;1.00;;;;;;5119466;27;20534;-74
2021/08/08 09:15:32;;;;;;;3.40;1.80;;;22.80;1.00;;;;;;5124189;27;20487;-75
2021/08/08 09:18:14;;;;;;;4.03;1.70;;;22.70;1.00;;;;;;5118264;27;20516;-76
2021/08/08 09:20:45;;;;;;;1.80;1.30;;;22.70;1.00;;;;;;5116269;27;20643;-78
2021/08/08 09:23:13;;;;;;;3.20;1.57;;;22.70;1.00;;;;;;5100380;27;20495;-74
2021/08/08 09:25:49;;;;;;;2.97;1.50;;;22.70;1.00;;;;;;5118464;27;20524;-77
2021/08/08 09:28:16;;;;;;;1.60;0.93;;;23.00;1.00;;;;;;5115087;27;20453;-76
2021/08/08 09:30:44;;;;;;;1.53;1.13;;;23.30;1.00;;;;;;5115981;27;20498;-75
2021/08/08 09:33:11;;;;;;;1.90;1.17;;;23.60;1.00;;;;;;5113916;27;20814;-74
2021/08/08 09:35:40;;;;;;;2.07;1.40;;;24.10;1.00;;;;;;5119394;27;20470;-75
2021/08/08 09:38:09;;;;;;;2.83;1.03;;;24.60;1.00;;;;;;5112320;27;20442;-74
2021/08/08 09:40:38;;;;;;;1.50;0.87;;;25.30;1.00;;;;;;5112618;27;20450;-75
2021/08/08 09:43:07;;;;;;;2.30;1.20;;;26.10;1.00;;;;;;5115617;27;20467;-76
2021/08/08 09:45:39;;;;;;;2.00;1.30;;;27.10;1.00;;;;;;5112534;27;20926;-74
2021/08/08 09:48:10;;;;;;;1.73;1.47;;;27.60;1.00;;;;;;5116854;27;20490;-75
2021/08/08 09:50:38;;;;;;;2.50;1.40;;;27.40;1.00;;;;;;5115661;27;20446;-75
2021/08/08 09:53:07;;;;;;;2.10;1.40;;;26.40;1.00;;;;;;5115285;27;20446;-75
2021/08/08 09:55:38;;;;;;;2.20;1.50;;;25.30;1.00;;;;;;5116510;27;20459;-74
2021/08/08 09:58:06;;;;;;;1.80;1.17;;;24.70;1.00;;;;;;5117240;27;20440;-76
2021/08/08 10:00:34;;;;;;;2.33;1.13;;;24.40;1.00;;;;;;5117450;27;20500;-77
2021/08/08 10:03:02;;;;;;;2.60;1.30;;;24.30;1.00;;;;;;5115828;27;20468;-76
2021/08/08 10:05:30;;;;;;;2.80;1.50;;;24.20;1.00;;;;;;5122237;27;20413;-75
2021/08/08 10:07:58;;;;;;;2.03;1.40;;;25.00;1.00;;;;;;5116578;27;20470;-75
2021/08/08 10:10:25;;;;;;;2.63;1.60;;;26.20;1.00;;;;;;5119901;27;20440;-75
2021/08/08 10:13:09;;;;;;;1.77;1.20;;;27.40;1.00;;;;;;5114226;27;20466;-75
2021/08/08 10:15:40;;;;;;;1.50;1.00;;;28.90;1.00;;;;;;5116304;27;20423;-74
2021/08/08 10:18:09;;;;;;;2.33;1.40;;;29.40;1.00;;;;;;5116876;27;20491;-74
2021/08/08 10:20:37;;;;;;;1.43;1.20;;;30.10;1.00;;;;;;5117084;27;21410;-75
2021/08/08 10:23:04;;;;;;;1.57;1.23;;;30.50;1.00;;;;;;5111837;27;20489;-76
2021/08/08 10:25:30;;;;;;;2.87;1.03;;;29.50;1.00;;;;;;5093775;27;20446;-76
2021/08/08 10:27:59;;;;;;;2.63;1.40;;;29.00;1.00;;;;;;5110659;27;20452;-76
2021/08/08 10:30:26;;;;;;;2.80;1.50;;;29.60;1.00;;;;;;5110234;27;20469;-75
2021/08/08 10:32:53;;;;;;;2.90;1.77;;;30.10;1.00;;;;;;5111983;27;20496;-75
2021/08/08 10:35:20;;;;;;;2.00;1.37;;;29.80;1.00;;;;;;5116170;27;20449;-77
2021/08/08 10:37:59;;;;;;;2.93;1.20;;;29.30;1.00;;;;;;5112542;27;20719;-75
2021/08/08 10:40:27;;;;;;;1.40;1.10;;;29.60;1.00;;;;;;5115441;27;20453;-76
2021/08/08 10:42:54;;;;;;;2.90;1.30;;;29.80;1.00;;;;;;5108897;27;20538;-76
2021/08/08 10:45:23;;;;;;;2.27;1.60;;;29.60;1.00;;;;;;5113793;27;20461;-76
2021/08/08 10:47:55;;;;;;;1.70;1.10;;;29.50;1.00;;;;;;5119045;27;20477;-75
2021/08/08 10:50:23;;;;;;;1.80;1.10;;;28.40;1.00;;;;;;5143422;27;20520;-75
2021/08/08 10:52:50;;;;;;;1.60;1.20;;;27.50;1.00;;;;;;5153944;27;20997;-74
2021/08/08 10:55:26;;;;;;;2.30;1.10;;;26.30;1.00;;;;;;5134397;27;20419;-75
2021/08/08 10:57:54;;;;;;;2.13;1.00;;;26.30;1.00;;;;;;5147866;27;20421;-76
2021/08/08 11:00:21;;;;;;;2.40;1.47;;;27.70;1.00;;;;;;5133264;27;20433;-75
2021/08/08 11:02:49;;;;;;;2.17;1.43;;;29.50;1.00;;;;;;5148123;27;20448;-76
2021/08/08 11:05:17;;;;;;;2.43;1.30;;;31.10;1.00;;;;;;5150911;27;20520;-75
2021/08/08 11:07:46;;;;;;;1.83;1.03;;;32.10;1.00;;;;;;5152455;27;20483;-77
2021/08/08 11:10:24;;;;;;;1.60;1.23;;;32.20;1.00;;;;;;5147542;27;20402;-76
2021/08/08 11:12:51;;;;;;;1.67;1.40;;;31.60;1.00;;;;;;5135847;27;20484;-76
2021/08/08 11:15:18;;;;;;;1.77;1.30;;;29.70;1.00;;;;;;5152294;27;20462;-75
2021/08/08 11:17:48;;;;;;;2.47;1.40;;;28.00;1.00;;;;;;5148300;27;20428;-75
2021/08/08 11:20:15;;;;;;;1.67;1.40;;;26.70;1.00;;;;;;5147678;27;20429;-76
2021/08/08 11:22:42;;;;;;;2.27;1.70;;;25.80;1.00;;;;;;5139754;27;20492;-76
2021/08/08 11:25:12;;;;;;;2.07;1.80;;;25.10;1.00;;;;;;5139134;27;20423;-75
2021/08/08 11:27:40;;;;;;;2.50;2.17;;;24.40;1.00;;;;;;5126948;27;24442;-75
2021/08/08 11:30:10;;;;;;;2.70;1.17;;;24.20;1.00;;;;;;5122030;27;20589;-75
2021/08/08 11:32:37;;;;;;;1.67;1.57;;;24.30;1.00;;;;;;5108371;27;20478;-75
2021/08/08 11:35:08;;;;;;;1.60;1.50;;;24.30;1.00;;;;;;5119600;27;20432;-75
2021/08/08 11:37:38;;;;;;;1.80;1.40;;;24.00;1.00;;;;;;5132167;27;21236;-76
2021/08/08 11:40:17;;;;;;;2.43;1.67;;;23.80;1.00;;;;;;5121035;27;20426;-76
2021/08/08 11:42:44;;;;;;;2.07;1.60;;;23.80;1.00;;;;;;5121955;27;20485;-76
2021/08/08 11:45:12;;;;;;;1.60;1.33;;;24.20;1.00;;;;;;5123078;27;20483;-76
2021/08/08 11:47:39;;;;;;;2.57;1.20;;;25.90;1.00;;;;;;5117907;27;20979;-76
2021/08/08 11:50:08;;;;;;;2.60;1.57;;;28.10;1.00;;;;;;5117769;27;20526;-76
2021/08/08 11:52:37;;;;;;;2.80;1.67;;;28.70;1.00;;;;;;5116049;27;20451;-76
2021/08/08 11:55:05;;;;;;;2.17;1.77;;;28.50;1.00;;;;;;5119869;27;21183;-77
2021/08/08 11:57:35;;;;;;;2.20;1.30;;;27.30;1.00;;;;;;5130591;27;20847;-76
2021/08/08 12:00:03;;;;;;;3.40;2.00;;;27.10;1.00;;;;;;5109702;27;20486;-76
2021/08/08 12:02:30;;;;;;;1.73;0.90;;;28.80;1.00;;;;;;5129188;27;20469;-74
2021/08/08 12:04:58;;;;;;;2.47;0.93;;;30.80;1.00;;;;;;5125972;27;20497;-76
2021/08/08 12:07:28;;;;;;;2.93;1.63;;;32.50;1.00;;;;;;5125801;27;20433;-76
2021/08/08 12:09:56;;;;;;;2.37;1.30;;;33.20;1.00;;;;;;5126180;27;20448;-75
2021/08/08 12:12:34;;;;;;;1.73;1.30;;;32.30;1.00;;;;;;5127970;27;20561;-77
2021/08/08 12:15:00;;;;;;;3.23;2.90;;;31.20;1.00;;;;;;5128812;27;20449;-76
2021/08/08 12:17:27;;;;;;;2.73;1.60;;;29.80;1.00;;;;;;5111986;27;20463;-76
2021/08/08 12:19:57;;;;;;;2.10;1.10;;;28.80;1.00;;;;;;5128211;27;20820;-76
2021/08/08 12:22:27;;;;;;;2.90;1.30;;;28.30;1.00;;;;;;5098382;27;20463;-77
2021/08/08 12:25:02;;;;;;;2.17;1.17;;;29.60;1.00;;;;;;5127103;27;20432;-77
2021/08/08 12:27:33;;;;;;;2.77;1.33;;;31.50;1.00;;;;;;5122849;27;20440;-77
2021/08/08 12:30:01;;;;;;;2.70;1.10;;;32.20;1.00;;;;;;5127212;27;20452;-76
2021/08/08 12:32:33;;;;;;;2.43;0.97;;;33.10;1.00;;;;;;5123239;27;21857;-76
2021/08/08 12:35:07;;;;;;;2.60;1.50;;;33.80;1.00;;;;;;5123914;27;20449;-74
2021/08/08 12:37:35;;;;;;;2.07;1.03;;;33.80;1.00;;;;;;5098599;27;20541;-75
2021/08/08 12:40:10;;;;;;;2.57;1.00;;;32.70;1.00;;;;;;5123240;27;20454;-77
2021/08/08 12:42:37;;;;;;;2.67;1.63;;;31.40;1.00;;;;;;5125665;27;20457;-75
2021/08/08 12:45:08;;;;;;;1.50;1.17;;;30.20;1.00;;;;;;5125368;27;20456;-75
2021/08/08 12:47:35;;;;;;;2.20;1.10;;;30.00;1.00;;;;;;5121081;27;20472;-75
2021/08/08 12:50:14;;;;;;;2.03;1.30;;;30.30;1.00;;;;;;5128859;27;20452;-76
2021/08/08 12:52:43;;;;;;;2.10;1.57;;;29.40;1.00;;;;;;5128732;27;20448;-76
2021/08/08 12:55:13;;;;;;;2.33;1.70;;;30.60;1.00;;;;;;5122865;27;20455;-76
2021/08/08 12:57:40;;;;;;;2.70;1.50;;;32.50;1.00;;;;;;5126494;27;20453;-76
2021/08/08 13:00:08;;;;;;;2.33;1.20;;;33.90;1.00;;;;;;5122414;27;20463;-76